Meteo Giornale » Osservazioni meteo Austria » Klagenfurt

ore: 21:20 - Osservazioni Meteo Klagenfurt
Lat. 46° 39' N Lon. 14° 20' E Alt. 448 metri s.l.m.

sereno Europe/Vienna

5 °C

Sereno

Temp. 24 Ore

-1 °C

16 °C

Nord

3.7 Km/h

Dew point 1 °C

Umidità 75 %

Visibilità  10 Km

Il sole sorge alle ore 06:45

Il sole tramonta alle ore 17:45

Data e Ora Cielo e Fenomeni T °C DP °C Um. % Pres. hPa Vis. km Vento km/h
Oggi h: 21:20 sereno Sereno 5 1 75 1026 10 N 3.7
Oggi h: 20:50 sereno Sereno 5 1 75 1025 10 NO 9.3
Oggi h: 19:50 sereno Sereno 6 1 70 1025 10 NO 9.3
Oggi h: 19:20 sereno Sereno 7 2 70 1025 10 NO 7.4
Oggi h: 18:20 sereno Sereno 9 2 61 1025 10 N 3.7
Oggi h: 17:50 sereno Sereno 11 2 53 1025 10 N 1.8
Oggi h: 17:20 sereno Sereno 12 1 46 1024 10 N 3.7
Oggi h: 16:50 sereno Sereno 14 2 44 1024 10 N 5.5
Oggi h: 16:20 sereno Sereno 16 1 36 1025 10 N 5.5
Oggi h: 15:50 sereno Sereno 16 -1 31 1025 10 N 3.7
Oggi h: 15:20 sereno Sereno 16 -1 31 1026 10 N 3.7
Oggi h: 14:50 sereno Sereno 16 -1 31 1026 10 N 1.8
Oggi h: 14:20 sereno Sereno 15 0 35 1026 10 N 3.7
Oggi h: 13:50 sereno Sereno 14 -1 35 1027 10 N 1.8
Oggi h: 13:20 sereno Sereno 14 -1 35 1028 10 N 3.7
Oggi h: 12:50 sereno Sereno 13 1 43 1028 10 N 5.5
Oggi h: 12:20 sereno Sereno 12 1 46 1029 10 N 1.8
Oggi h: 11:50 sereno Sereno 11 0 46 1029 10 N 3.7
Oggi h: 09:50 sereno Sereno 6 1 70 1031 10 N 3.7
Oggi h: 09:20 sereno Sereno 4 3 93 1031 10 N 1.8
Oggi h: 08:50 sereno Sereno 2 1 93 1031 10 N 3.7
Oggi h: 08:20 sereno Sereno 1 -0 93 1031 10 NO 7.4
Oggi h: 07:50 sereno Sereno -0 -2 86 1031 10 N 3.7
Oggi h: 07:20 sereno Sereno -1 -2 92 1031 10 NO 7.4
Oggi h: 06:50 sereno Sereno -1 -2 92 1031 10 N 5.5
Oggi h: 06:20 sereno Sereno -1 -2 92 1031 10 N 3.7
Oggi h: 05:50 sereno Sereno -1 -2 92 1031 10 N 5.5
Oggi h: 05:20 sereno Sereno -1 -2 92 1031 10 N 5.5
Oggi h: 04:50 sereno Sereno -1 -2 92 1031 10 O/NO 7.4
Oggi h: 04:20 sereno Sereno -0 -1 92 1031 10 O/NO 9.3
Oggi h: 03:50 sereno Sereno -0 -1 92 1031 10 N 5.5
Oggi h: 03:20 sereno Sereno 0 -1 92 1031 10 N 5.5
Oggi h: 02:50 sereno Sereno 0 -1 92 1031 10 N 5.5
Oggi h: 02:20 sereno Sereno 1 -1 86 1032 10 N 3.7
Oggi h: 01:50 sereno Sereno 1 -0 93 1032 10 N 5.5
Oggi h: 01:20 sereno Sereno 1 -0 93 1032 10 N 5.5
Oggi h: 00:50 sereno Sereno 2 0 86 1032 10 NO 7.4
Oggi h: 00:20 sereno Sereno 2 -0 86 1032 10 N 5.5
Ieri h: 23:50 sereno Sereno 2 0 86 1032 10 NO 11.1
Ieri h: 22:50 sereno Sereno 3 1 86 1032 10 O/NO 9.3
Ieri h: 22:20 sereno Sereno 4 1 80 1032 10 O 9.3
Ieri h: 21:50 sereno Sereno 4 1 80 1032 10 O/NO 7.4